Time;durP1;ratioP1;P1;durP2;ratioP2;P2;SDS_P1;SDS_P2;PMS_P1;PMS_P2;Temp;Humidity;BMP_temperature;BMP_pressure;BME280_temperature;BME280_humidity;BME280_pressure;Samples;Min_cycle;Max_cycle;Signal;HPM_P1;HPM_P2
2023/09/23 00:01:04;;;;;;;1.83;1.33;;;14.80;99.90;;;;;;5073036;28;20538;-60
2023/09/23 00:03:33;;;;;;;2.10;1.80;;;14.80;99.90;;;;;;5072722;28;21000;-60
2023/09/23 00:06:00;;;;;;;2.27;1.30;;;14.80;99.90;;;;;;5073093;28;20447;-61
2023/09/23 00:08:27;;;;;;;3.80;1.53;;;14.80;99.90;;;;;;5073150;28;20462;-62
2023/09/23 00:10:54;;;;;;;4.13;1.10;;;14.80;99.90;;;;;;5073036;28;20450;-61
2023/09/23 00:13:21;;;;;;;1.40;1.20;;;14.80;99.90;;;;;;5076029;28;20465;-62
2023/09/23 00:15:50;;;;;;;3.60;1.40;;;14.80;99.90;;;;;;5073678;28;20443;-61
2023/09/23 00:18:17;;;;;;;1.57;1.17;;;14.80;99.90;;;;;;5072874;28;20475;-60
2023/09/23 00:20:45;;;;;;;3.87;1.60;;;14.70;99.90;;;;;;5073081;28;20937;-61
2023/09/23 00:23:12;;;;;;;1.23;1.10;;;14.70;99.90;;;;;;5072682;28;20865;-61
2023/09/23 00:25:38;;;;;;;3.10;1.20;;;14.70;99.90;;;;;;5073165;28;20444;-61
2023/09/23 00:28:11;;;;;;;1.60;1.27;;;14.60;99.90;;;;;;5075012;28;20955;-60
2023/09/23 00:30:37;;;;;;;1.33;1.20;;;14.60;99.90;;;;;;5077145;28;20424;-60
2023/09/23 00:33:07;;;;;;;3.80;1.30;;;14.60;99.90;;;;;;5076537;28;20543;-60
2023/09/23 00:35:36;;;;;;;1.60;1.20;;;14.50;99.90;;;;;;5076895;28;20435;-59
2023/09/23 00:38:04;;;;;;;2.70;1.27;;;14.50;99.90;;;;;;5076755;28;20479;-60
2023/09/23 00:40:37;;;;;;;1.73;1.17;;;14.40;99.90;;;;;;5076885;28;20453;-60
2023/09/23 00:43:06;;;;;;;2.40;1.37;;;14.30;99.90;;;;;;5076824;28;20522;-60
2023/09/23 00:45:33;;;;;;;2.90;1.60;;;14.30;99.90;;;;;;5076911;28;20538;-61
2023/09/23 00:48:01;;;;;;;2.00;1.80;;;14.20;99.90;;;;;;5076653;28;20439;-61
2023/09/23 00:50:29;;;;;;;2.13;1.70;;;14.20;99.90;;;;;;5076341;28;20823;-61
2023/09/23 00:52:57;;;;;;;1.73;1.27;;;14.10;99.90;;;;;;5076291;28;20447;-60
2023/09/23 00:55:24;;;;;;;2.00;1.43;;;14.10;99.90;;;;;;5076421;28;20439;-60
2023/09/23 00:57:53;;;;;;;3.80;1.80;;;14.20;99.90;;;;;;5076282;28;20475;-60
2023/09/23 01:00:25;;;;;;;1.93;1.10;;;14.20;99.90;;;;;;5076019;28;20800;-62
2023/09/23 01:02:53;;;;;;;5.00;1.10;;;14.20;99.90;;;;;;5076390;28;20420;-59
2023/09/23 01:05:23;;;;;;;1.50;1.30;;;14.30;99.90;;;;;;5076042;28;20463;-59
2023/09/23 01:07:51;;;;;;;1.90;1.73;;;14.30;99.90;;;;;;5075552;28;20450;-60
2023/09/23 01:10:18;;;;;;;1.90;1.50;;;14.40;99.90;;;;;;5075735;28;20443;-60
2023/09/23 01:12:46;;;;;;;5.87;1.23;;;14.40;99.90;;;;;;5076133;28;20443;-60
2023/09/23 01:15:16;;;;;;;2.00;1.60;;;14.40;99.90;;;;;;5075671;28;20460;-60
2023/09/23 01:17:49;;;;;;;1.40;1.30;;;14.40;99.90;;;;;;5076286;28;20467;-60
2023/09/23 01:20:16;;;;;;;1.60;1.27;;;14.40;99.90;;;;;;5075705;28;20920;-60
2023/09/23 01:22:44;;;;;;;1.87;1.20;;;14.50;99.90;;;;;;5076381;28;20440;-60
2023/09/23 01:25:11;;;;;;;2.27;1.60;;;14.50;99.90;;;;;;5076167;28;20512;-60
2023/09/23 01:27:39;;;;;;;3.33;1.60;;;14.50;99.90;;;;;;5076108;28;20436;-60
2023/09/23 01:30:07;;;;;;;2.20;1.23;;;14.50;99.90;;;;;;5075805;28;20964;-61
2023/09/23 01:32:46;;;;;;;1.93;1.43;;;14.60;99.90;;;;;;5075793;28;20821;-59
2023/09/23 01:35:15;;;;;;;3.27;1.70;;;14.50;99.90;;;;;;5075588;28;20520;-60
2023/09/23 01:37:42;;;;;;;2.63;1.60;;;14.60;99.90;;;;;;5076080;28;20578;-60
2023/09/23 01:40:14;;;;;;;4.57;1.33;;;14.50;99.90;;;;;;5075125;28;20444;-61
2023/09/23 01:42:41;;;;;;;3.50;1.40;;;14.50;99.90;;;;;;5076277;28;20428;-60
2023/09/23 01:45:10;;;;;;;1.70;1.33;;;14.60;99.90;;;;;;5075962;28;20471;-60
2023/09/23 01:47:37;;;;;;;2.17;1.17;;;14.60;99.90;;;;;;5075269;28;20442;-61
2023/09/23 01:50:04;;;;;;;3.27;1.57;;;14.50;99.90;;;;;;5075553;28;20453;-60
2023/09/23 01:52:32;;;;;;;1.97;1.30;;;14.50;99.90;;;;;;5075375;28;20446;-60
2023/09/23 01:55:12;;;;;;;1.70;1.60;;;14.50;99.90;;;;;;5075488;28;20463;-61
2023/09/23 01:57:39;;;;;;;2.00;1.57;;;14.40;99.90;;;;;;5075971;28;20467;-59
2023/09/23 02:00:10;;;;;;;1.57;1.47;;;14.30;99.90;;;;;;5075507;28;20921;-62
2023/09/23 02:02:38;;;;;;;1.80;1.50;;;14.20;99.90;;;;;;5075527;28;20420;-61
2023/09/23 02:05:06;;;;;;;1.30;1.13;;;14.20;99.90;;;;;;5075518;28;20520;-59
2023/09/23 02:07:32;;;;;;;1.73;1.50;;;14.20;99.90;;;;;;5075510;28;20443;-59
2023/09/23 02:10:00;;;;;;;1.77;1.50;;;14.20;99.90;;;;;;5075410;28;20440;-60
2023/09/23 02:12:28;;;;;;;3.83;1.40;;;14.20;99.90;;;;;;5075242;28;20489;-60
2023/09/23 02:14:55;;;;;;;2.10;1.50;;;14.20;99.90;;;;;;5075500;28;20576;-61
2023/09/23 02:17:22;;;;;;;2.03;1.67;;;14.20;99.90;;;;;;5075583;28;20487;-60
2023/09/23 02:19:50;;;;;;;2.60;1.57;;;14.20;99.90;;;;;;5075241;28;20483;-61
2023/09/23 02:22:17;;;;;;;1.70;1.60;;;14.30;99.90;;;;;;5074905;28;21016;-61
2023/09/23 02:24:44;;;;;;;1.93;1.40;;;14.30;99.90;;;;;;5074917;28;20529;-61
2023/09/23 02:27:11;;;;;;;2.40;1.40;;;14.20;99.90;;;;;;5075167;28;20432;-60
2023/09/23 02:29:41;;;;;;;3.53;1.87;;;14.20;99.90;;;;;;5074695;28;20482;-60
2023/09/23 02:32:08;;;;;;;3.70;1.40;;;14.10;99.90;;;;;;5075014;28;20440;-60
2023/09/23 02:34:36;;;;;;;2.80;1.80;;;14.10;99.90;;;;;;5088023;22;20495;-61
2023/09/23 02:37:04;;;;;;;3.67;2.03;;;14.00;99.90;;;;;;5054720;28;20875;-62
2023/09/23 02:39:31;;;;;;;1.63;1.43;;;14.00;99.90;;;;;;5054750;28;20547;-61
2023/09/23 02:41:59;;;;;;;3.17;1.83;;;14.00;99.90;;;;;;5054323;28;21014;-62
2023/09/23 02:44:29;;;;;;;1.90;1.70;;;13.90;99.90;;;;;;5054222;28;20504;-62
2023/09/23 02:46:58;;;;;;;2.20;2.00;;;13.90;99.90;;;;;;5054237;28;20952;-61
2023/09/23 02:49:24;;;;;;;1.70;1.50;;;13.80;99.90;;;;;;5054324;28;20443;-61
2023/09/23 02:51:51;;;;;;;2.50;1.87;;;13.80;99.90;;;;;;5053076;28;20502;-61
2023/09/23 02:54:18;;;;;;;3.00;1.97;;;13.70;99.90;;;;;;5054042;28;20467;-61
2023/09/23 02:56:47;;;;;;;3.20;1.97;;;13.70;99.90;;;;;;5054253;28;20810;-61
2023/09/23 02:59:15;;;;;;;6.53;2.17;;;13.70;99.90;;;;;;5053694;28;20898;-62
2023/09/23 03:01:46;;;;;;;2.43;2.23;;;13.70;99.90;;;;;;5054082;28;20502;-59
2023/09/23 03:04:18;;;;;;;2.20;1.90;;;13.70;99.90;;;;;;5054067;28;20513;-62
2023/09/23 03:06:49;;;;;;;3.00;2.57;;;13.60;99.90;;;;;;5053813;28;20479;-62
2023/09/23 03:09:19;;;;;;;3.50;2.63;;;13.60;99.90;;;;;;5054110;28;20720;-62
2023/09/23 03:11:53;;;;;;;3.40;2.70;;;13.60;99.90;;;;;;5053835;28;20425;-61
2023/09/23 03:14:23;;;;;;;2.77;2.53;;;13.60;99.90;;;;;;5053281;28;20988;-62
2023/09/23 03:16:53;;;;;;;3.40;3.00;;;13.60;99.90;;;;;;5053579;28;20441;-61
2023/09/23 03:19:25;;;;;;;3.50;3.20;;;13.60;99.90;;;;;;5053693;28;20567;-62
2023/09/23 03:21:54;;;;;;;2.80;2.57;;;13.60;99.90;;;;;;5053605;28;20435;-62
2023/09/23 03:24:21;;;;;;;3.50;3.20;;;13.70;99.90;;;;;;5053527;28;20464;-60
2023/09/23 03:26:48;;;;;;;4.13;3.33;;;13.70;99.90;;;;;;5054576;28;20510;-61
2023/09/23 03:29:15;;;;;;;3.50;3.20;;;13.70;99.90;;;;;;5053582;28;20439;-60
2023/09/23 03:31:42;;;;;;;3.57;3.27;;;13.70;99.90;;;;;;5053221;28;20440;-62
2023/09/23 03:34:12;;;;;;;5.23;3.80;;;13.70;99.90;;;;;;5053216;28;20849;-58
2023/09/23 03:36:41;;;;;;;5.67;5.17;;;13.70;99.90;;;;;;5053975;28;20443;-62
2023/09/23 03:39:08;;;;;;;5.47;4.90;;;13.70;99.90;;;;;;5053714;28;20490;-61
2023/09/23 03:41:36;;;;;;;5.07;4.67;;;13.70;99.90;;;;;;5053593;28;20447;-61
2023/09/23 03:44:03;;;;;;;5.33;4.83;;;13.60;99.90;;;;;;5052931;28;20460;-61
2023/09/23 03:46:30;;;;;;;6.50;5.90;;;13.60;99.90;;;;;;5053489;28;20498;-62
2023/09/23 03:48:57;;;;;;;5.80;5.30;;;13.60;99.90;;;;;;5053288;28;20527;-61
2023/09/23 03:51:24;;;;;;;4.77;4.20;;;13.60;99.90;;;;;;5053215;28;20445;-61
2023/09/23 03:53:52;;;;;;;5.73;5.23;;;13.60;99.90;;;;;;5053109;28;20499;-61
2023/09/23 03:56:19;;;;;;;6.90;5.33;;;13.60;99.90;;;;;;5053287;28;20440;-61
2023/09/23 03:58:46;;;;;;;6.13;5.63;;;13.60;99.90;;;;;;5053139;28;20498;-61
2023/09/23 04:01:14;;;;;;;6.40;5.67;;;13.60;99.90;;;;;;5080656;22;20491;-60
2023/09/23 04:03:41;;;;;;;6.33;5.73;;;13.60;99.90;;;;;;5073483;28;20424;-61
2023/09/23 04:06:07;;;;;;;5.67;5.17;;;13.60;99.90;;;;;;5073717;28;20950;-60
2023/09/23 04:08:35;;;;;;;6.30;5.50;;;13.60;99.90;;;;;;5073774;28;20439;-60
2023/09/23 04:12:15;;;;;;;6.17;5.57;;;13.60;99.90;;;;;;5112962;27;20557;-60
2023/09/23 04:14:42;;;;;;;6.57;5.93;;;13.60;99.90;;;;;;5113457;28;20437;-57
2023/09/23 04:17:10;;;;;;;5.63;5.13;;;13.60;99.90;;;;;;5111746;28;20446;-59
2023/09/23 04:19:37;;;;;;;5.30;4.80;;;13.60;99.90;;;;;;5112073;28;20441;-60
2023/09/23 04:22:04;;;;;;;5.60;5.03;;;13.50;99.90;;;;;;5111162;28;20462;-60
2023/09/23 04:24:31;;;;;;;6.97;5.80;;;13.60;99.90;;;;;;5111066;28;20480;-60
2023/09/23 04:26:59;;;;;;;6.00;5.50;;;13.50;99.90;;;;;;5111023;28;20442;-61
2023/09/23 04:29:28;;;;;;;5.53;5.03;;;13.50;99.90;;;;;;5110716;28;21020;-60
2023/09/23 04:31:56;;;;;;;5.63;5.13;;;13.50;99.90;;;;;;5110919;28;20477;-61
2023/09/23 04:34:24;;;;;;;6.33;5.70;;;13.50;99.90;;;;;;5111500;28;20926;-61
2023/09/23 04:36:50;;;;;;;5.63;5.13;;;13.50;99.90;;;;;;5111293;28;20438;-61
2023/09/23 04:39:17;;;;;;;5.43;4.93;;;13.50;99.90;;;;;;5110603;28;20444;-60
2023/09/23 04:41:44;;;;;;;5.60;5.10;;;13.40;99.90;;;;;;5111009;28;20457;-59
2023/09/23 04:44:12;;;;;;;6.43;5.33;;;13.30;99.90;;;;;;5110826;28;20464;-61
2023/09/23 04:46:40;;;;;;;6.83;5.93;;;13.30;99.90;;;;;;5110642;28;20795;-61
2023/09/23 04:49:07;;;;;;;5.97;5.47;;;13.30;99.90;;;;;;5110899;28;20445;-60
2023/09/23 04:51:34;;;;;;;5.10;4.60;;;13.30;99.90;;;;;;5113040;28;20576;-60
2023/09/23 04:54:01;;;;;;;6.10;5.50;;;13.20;99.90;;;;;;5110524;28;20434;-60
2023/09/23 04:56:28;;;;;;;5.93;5.33;;;13.20;99.90;;;;;;5110832;28;20485;-61
2023/09/23 04:58:58;;;;;;;6.07;5.47;;;13.20;99.90;;;;;;5110877;28;20442;-61
2023/09/23 05:01:25;;;;;;;6.03;5.53;;;13.10;99.90;;;;;;5111011;28;20465;-61
2023/09/23 05:03:55;;;;;;;6.03;5.40;;;13.10;99.90;;;;;;5110851;28;20503;-61
2023/09/23 05:06:22;;;;;;;6.07;5.57;;;13.10;99.90;;;;;;5111509;28;20499;-62
2023/09/23 05:08:49;;;;;;;5.17;4.77;;;13.10;99.90;;;;;;5112191;28;20441;-60
2023/09/23 05:11:17;;;;;;;5.77;5.27;;;13.10;99.90;;;;;;5112041;28;20492;-61
2023/09/23 05:13:43;;;;;;;6.10;5.37;;;13.10;99.90;;;;;;5112121;28;20510;-60
2023/09/23 05:16:10;;;;;;;5.50;5.00;;;13.10;99.90;;;;;;5112390;28;20433;-61
2023/09/23 05:18:38;;;;;;;5.10;4.70;;;13.10;99.90;;;;;;5111297;28;20442;-60
2023/09/23 05:21:06;;;;;;;5.47;4.97;;;13.20;99.90;;;;;;5110494;28;20458;-61
2023/09/23 05:23:33;;;;;;;5.87;5.33;;;13.20;99.90;;;;;;5097074;28;20443;-61
2023/09/23 05:26:00;;;;;;;5.60;5.10;;;13.30;99.90;;;;;;5097473;28;20443;-60
2023/09/23 05:28:27;;;;;;;5.43;4.93;;;13.30;99.90;;;;;;5100365;28;20446;-61
2023/09/23 05:30:54;;;;;;;5.90;5.30;;;13.30;99.90;;;;;;5097761;28;20474;-61
2023/09/23 05:33:21;;;;;;;6.07;5.57;;;13.40;99.90;;;;;;5108248;28;20443;-61
2023/09/23 05:35:48;;;;;;;5.63;5.00;;;13.40;99.90;;;;;;5106735;28;20442;-60
2023/09/23 05:38:16;;;;;;;5.70;5.27;;;13.40;99.90;;;;;;5107592;28;20458;-60
2023/09/23 05:40:43;;;;;;;5.60;5.10;;;13.40;99.90;;;;;;5108374;28;20439;-61
2023/09/23 05:43:11;;;;;;;5.53;5.10;;;13.40;99.90;;;;;;5108758;28;20515;-61
2023/09/23 05:45:38;;;;;;;6.40;5.80;;;13.40;99.90;;;;;;5108049;28;20447;-60
2023/09/23 05:48:05;;;;;;;5.60;5.10;;;13.30;99.90;;;;;;5100777;28;20438;-60
2023/09/23 05:50:32;;;;;;;6.33;5.37;;;13.30;99.90;;;;;;5100393;28;20443;-60
2023/09/23 05:52:59;;;;;;;5.40;4.93;;;13.30;99.90;;;;;;5096194;28;20463;-60
2023/09/23 05:55:28;;;;;;;5.87;5.37;;;13.30;99.90;;;;;;5096294;28;20831;-60
2023/09/23 05:57:55;;;;;;;6.07;5.57;;;13.30;99.90;;;;;;5096063;28;20438;-60
2023/09/23 06:00:22;;;;;;;5.73;5.23;;;13.20;99.90;;;;;;5096076;28;20827;-60
2023/09/23 06:02:48;;;;;;;5.60;5.20;;;13.30;99.90;;;;;;5097769;28;20458;-60
2023/09/23 06:05:15;;;;;;;6.07;5.47;;;13.30;99.90;;;;;;5096375;28;20815;-60
2023/09/23 06:07:42;;;;;;;6.07;5.47;;;13.30;99.90;;;;;;5097435;28;20435;-60
2023/09/23 06:10:10;;;;;;;5.70;5.20;;;13.20;99.90;;;;;;5097026;28;20476;-60
2023/09/23 06:12:39;;;;;;;6.37;5.77;;;13.20;99.90;;;;;;5095875;28;20482;-60
2023/09/23 06:15:07;;;;;;;5.03;4.63;;;13.20;99.90;;;;;;5096649;28;20791;-61
2023/09/23 06:17:33;;;;;;;6.03;5.53;;;13.20;99.90;;;;;;5096120;28;20439;-60
2023/09/23 06:20:01;;;;;;;5.73;5.23;;;13.20;99.90;;;;;;5096148;28;20439;-59
2023/09/23 06:22:28;;;;;;;6.10;5.60;;;13.20;99.90;;;;;;5097632;28;20516;-59
2023/09/23 06:24:55;;;;;;;7.50;5.63;;;13.30;99.90;;;;;;5096695;28;20446;-58
2023/09/23 06:27:22;;;;;;;5.63;5.13;;;13.30;99.90;;;;;;5096187;28;20445;-58
2023/09/23 06:29:50;;;;;;;5.57;5.03;;;13.30;99.90;;;;;;5095596;28;20439;-59
2023/09/23 06:32:16;;;;;;;6.77;6.17;;;13.30;99.90;;;;;;5095130;28;21026;-59
2023/09/23 06:34:44;;;;;;;5.33;4.83;;;13.40;99.90;;;;;;5095933;28;20439;-58
2023/09/23 06:37:11;;;;;;;6.53;5.93;;;13.40;99.90;;;;;;5095578;28;20537;-60
2023/09/23 06:39:37;;;;;;;6.77;5.40;;;13.50;99.90;;;;;;5095211;28;20453;-61
2023/09/23 06:42:04;;;;;;;6.00;5.50;;;13.50;99.90;;;;;;5095083;28;20852;-61
2023/09/23 06:44:32;;;;;;;5.97;4.83;;;13.50;99.90;;;;;;5096031;28;20526;-61
2023/09/23 06:47:01;;;;;;;7.67;5.90;;;13.50;99.90;;;;;;5095750;28;20439;-61
2023/09/23 06:49:28;;;;;;;6.00;5.43;;;13.60;99.90;;;;;;5096294;28;20537;-61
2023/09/23 06:51:55;;;;;;;5.83;5.33;;;13.60;99.90;;;;;;5094711;28;20515;-60
2023/09/23 06:54:22;;;;;;;6.60;6.00;;;13.70;99.90;;;;;;5094918;28;20449;-61
2023/09/23 06:56:49;;;;;;;7.00;6.40;;;13.70;99.90;;;;;;5094957;28;20443;-61
2023/09/23 06:59:15;;;;;;;6.40;5.80;;;13.70;99.90;;;;;;5094815;28;20435;-60
2023/09/23 07:01:42;;;;;;;6.47;5.87;;;13.70;99.90;;;;;;5094900;28;20455;-61
2023/09/23 07:04:10;;;;;;;6.97;6.27;;;13.80;99.90;;;;;;5095275;28;20441;-59
2023/09/23 07:06:37;;;;;;;7.13;6.50;;;13.80;99.90;;;;;;5094687;28;20495;-60
2023/09/23 07:09:05;;;;;;;7.70;7.00;;;13.80;99.90;;;;;;5094606;28;20443;-60
2023/09/23 07:11:31;;;;;;;9.10;7.00;;;13.90;99.90;;;;;;5093925;28;20486;-60
2023/09/23 07:14:00;;;;;;;8.83;7.17;;;13.90;99.90;;;;;;5094347;28;20815;-60
2023/09/23 07:16:27;;;;;;;8.73;7.40;;;13.90;99.90;;;;;;5095590;28;20531;-61
2023/09/23 07:18:54;;;;;;;9.23;6.70;;;14.00;99.90;;;;;;5095472;28;20476;-59
2023/09/23 07:21:22;;;;;;;8.33;7.27;;;14.00;99.90;;;;;;5096019;28;20450;-61
2023/09/23 07:23:49;;;;;;;8.60;7.57;;;14.10;99.90;;;;;;5094760;28;20443;-60
2023/09/23 07:26:20;;;;;;;8.10;6.93;;;14.20;99.90;;;;;;5095879;28;20444;-60
2023/09/23 07:28:47;;;;;;;8.10;7.30;;;14.20;99.90;;;;;;5095040;28;20515;-60
2023/09/23 07:31:14;;;;;;;8.83;8.00;;;14.30;99.90;;;;;;5095351;28;20861;-60
2023/09/23 07:33:40;;;;;;;8.53;7.70;;;14.40;99.90;;;;;;5094877;28;20446;-59
2023/09/23 07:36:11;;;;;;;11.40;8.70;;;14.50;99.90;;;;;;5095250;28;20449;-59
2023/09/23 07:38:39;;;;;;;9.13;8.33;;;14.60;99.90;;;;;;5103188;28;20419;-61
2023/09/23 07:41:05;;;;;;;8.73;7.93;;;14.60;99.90;;;;;;5099789;28;20463;-61
2023/09/23 07:43:32;;;;;;;9.10;8.20;;;14.70;99.90;;;;;;5102648;28;20805;-61
2023/09/23 07:45:59;;;;;;;7.10;6.40;;;14.80;99.90;;;;;;5101089;28;20448;-61
2023/09/23 07:48:26;;;;;;;7.63;6.93;;;14.80;99.90;;;;;;5098609;28;20453;-60
2023/09/23 07:50:54;;;;;;;6.93;6.00;;;14.80;99.90;;;;;;5095060;28;20446;-59
2023/09/23 07:53:21;;;;;;;6.73;6.03;;;14.90;99.90;;;;;;5094232;28;20443;-60
2023/09/23 07:55:49;;;;;;;6.83;6.13;;;15.00;99.90;;;;;;5094245;28;20438;-61
2023/09/23 07:58:16;;;;;;;7.00;5.87;;;15.10;99.90;;;;;;5095125;28;20500;-60
2023/09/23 08:00:43;;;;;;;8.10;6.87;;;15.20;99.90;;;;;;5094631;28;20438;-57
2023/09/23 08:03:09;;;;;;;7.30;6.20;;;15.30;99.90;;;;;;5094699;28;20445;-60
2023/09/23 08:05:36;;;;;;;6.67;5.40;;;15.40;99.90;;;;;;5093966;28;20537;-60
2023/09/23 08:08:03;;;;;;;6.70;5.37;;;15.50;99.90;;;;;;5100573;28;20450;-62
2023/09/23 08:10:31;;;;;;;8.30;4.77;;;15.40;99.90;;;;;;5101901;28;20451;-60
2023/09/23 08:12:59;;;;;;;5.30;4.80;;;15.40;99.90;;;;;;5099575;28;20486;-60
2023/09/23 08:15:25;;;;;;;5.80;5.20;;;15.50;99.90;;;;;;5097128;28;20450;-61
2023/09/23 08:17:52;;;;;;;6.83;5.40;;;15.40;99.90;;;;;;5095836;28;20453;-60
2023/09/23 08:20:20;;;;;;;5.37;4.33;;;15.40;99.90;;;;;;5096805;28;20439;-59
2023/09/23 08:22:47;;;;;;;5.43;4.63;;;15.40;99.90;;;;;;5096561;28;20455;-60
2023/09/23 08:25:15;;;;;;;5.30;4.20;;;15.40;99.60;;;;;;5098825;28;20448;-60
2023/09/23 08:27:42;;;;;;;4.90;4.13;;;15.40;99.30;;;;;;5096414;28;20493;-60
2023/09/23 08:30:12;;;;;;;4.23;3.83;;;15.40;99.40;;;;;;5096626;28;20453;-59
2023/09/23 08:32:39;;;;;;;6.50;4.30;;;15.30;99.40;;;;;;5096664;28;20481;-60
2023/09/23 08:35:07;;;;;;;5.30;3.93;;;15.30;99.60;;;;;;5097212;28;20443;-60
2023/09/23 08:37:34;;;;;;;6.17;4.10;;;15.30;99.60;;;;;;5097921;28;20442;-60
2023/09/23 08:40:04;;;;;;;5.00;4.13;;;15.40;99.50;;;;;;5096943;28;20442;-60
2023/09/23 08:42:31;;;;;;;3.93;3.53;;;15.40;99.40;;;;;;5096034;28;20473;-61
2023/09/23 08:44:58;;;;;;;4.23;3.50;;;15.60;99.40;;;;;;5096689;28;20443;-61
2023/09/23 08:47:27;;;;;;;5.27;2.80;;;15.80;99.20;;;;;;5096088;28;20434;-61
2023/09/23 08:49:55;;;;;;;4.07;3.00;;;15.90;98.80;;;;;;5097118;28;20449;-62
2023/09/23 08:52:24;;;;;;;4.67;3.63;;;16.10;98.40;;;;;;5096905;28;20482;-62
2023/09/23 08:54:51;;;;;;;5.30;3.90;;;16.10;98.00;;;;;;5095287;28;20469;-60
2023/09/23 08:57:19;;;;;;;5.00;3.20;;;16.20;97.80;;;;;;5096211;28;20442;-61
2023/09/23 08:59:47;;;;;;;3.50;3.20;;;16.00;97.60;;;;;;5099414;28;20485;-63
2023/09/23 09:02:17;;;;;;;3.83;2.70;;;15.90;98.00;;;;;;5099028;28;20457;-60
2023/09/23 09:04:45;;;;;;;4.63;3.20;;;15.80;98.30;;;;;;5099517;28;20441;-61
2023/09/23 09:07:12;;;;;;;5.53;3.13;;;15.80;98.30;;;;;;5098693;28;20501;-61
2023/09/23 09:09:39;;;;;;;5.47;3.43;;;15.80;98.40;;;;;;5099461;28;20477;-61
2023/09/23 09:12:07;;;;;;;5.97;3.30;;;15.80;98.50;;;;;;5099397;28;20497;-61
2023/09/23 09:14:34;;;;;;;3.60;2.63;;;15.90;98.50;;;;;;5098332;28;20954;-61
2023/09/23 09:17:01;;;;;;;4.87;2.73;;;16.00;98.30;;;;;;5098788;28;20445;-61
2023/09/23 09:19:28;;;;;;;5.57;3.37;;;16.10;98.10;;;;;;5099121;28;20442;-61
2023/09/23 09:21:57;;;;;;;6.33;2.93;;;16.20;97.80;;;;;;5098773;28;20463;-61
2023/09/23 09:24:25;;;;;;;2.80;2.23;;;16.40;97.70;;;;;;5098368;28;20495;-61
2023/09/23 09:26:53;;;;;;;5.03;2.90;;;16.50;97.30;;;;;;5099654;28;20526;-62
2023/09/23 09:29:21;;;;;;;4.37;2.80;;;16.60;96.70;;;;;;5098913;28;20439;-61
2023/09/23 09:31:50;;;;;;;4.00;2.90;;;16.60;96.40;;;;;;5099269;28;20843;-61
2023/09/23 09:34:24;;;;;;;3.30;2.53;;;16.60;96.10;;;;;;5098926;28;20790;-61
2023/09/23 09:36:56;;;;;;;3.07;2.20;;;16.70;95.70;;;;;;5100409;28;20419;-62
2023/09/23 09:39:27;;;;;;;2.33;2.00;;;16.70;95.50;;;;;;5099819;28;20426;-60
2023/09/23 09:41:57;;;;;;;2.93;2.20;;;16.80;95.30;;;;;;5099453;28;20983;-61
2023/09/23 09:44:28;;;;;;;5.67;2.43;;;17.00;94.80;;;;;;5099922;28;20446;-61
2023/09/23 09:46:56;;;;;;;3.43;2.30;;;17.10;93.50;;;;;;5099688;28;20961;-62
2023/09/23 09:49:24;;;;;;;4.43;2.60;;;17.10;93.20;;;;;;5098770;28;20443;-62
2023/09/23 09:51:51;;;;;;;3.80;2.53;;;17.10;93.10;;;;;;5099366;28;20480;-61
2023/09/23 09:54:21;;;;;;;3.47;2.70;;;17.20;92.70;;;;;;5098807;28;20805;-60
2023/09/23 09:56:52;;;;;;;2.87;2.50;;;17.30;91.90;;;;;;5099630;28;20423;-59
2023/09/23 09:59:31;;;;;;;2.63;2.43;;;17.20;91.80;;;;;;5098831;28;20504;-61
2023/09/23 10:01:59;;;;;;;2.97;2.70;;;17.30;91.90;;;;;;5097792;28;20481;-61
2023/09/23 10:04:31;;;;;;;4.20;2.70;;;17.30;91.40;;;;;;5098082;28;20440;-60
2023/09/23 10:06:58;;;;;;;3.93;2.33;;;17.30;91.20;;;;;;5098846;28;20472;-60
2023/09/23 10:09:31;;;;;;;2.53;2.33;;;17.50;91.10;;;;;;5097778;28;20448;-61
2023/09/23 10:11:59;;;;;;;4.03;2.40;;;17.60;90.70;;;;;;5096953;28;20482;-60
2023/09/23 10:14:26;;;;;;;4.47;2.30;;;17.60;90.20;;;;;;5097404;28;20490;-62
2023/09/23 10:16:59;;;;;;;3.03;2.30;;;17.70;89.70;;;;;;5097003;28;20457;-60
2023/09/23 10:19:31;;;;;;;3.57;2.70;;;17.80;88.80;;;;;;5097074;28;20423;-60
2023/09/23 10:22:12;;;;;;;3.93;2.50;;;17.80;88.10;;;;;;5097137;28;20494;-61
2023/09/23 10:24:41;;;;;;;4.17;2.53;;;18.00;87.50;;;;;;5098842;28;20427;-62
2023/09/23 10:27:10;;;;;;;2.97;2.33;;;18.20;85.80;;;;;;5099162;28;20471;-62
2023/09/23 10:29:45;;;;;;;2.83;2.63;;;18.40;84.40;;;;;;5097163;28;20447;-61
2023/09/23 10:32:14;;;;;;;2.73;2.43;;;18.40;82.10;;;;;;5096951;28;20474;-61
2023/09/23 10:34:46;;;;;;;3.30;2.47;;;18.50;81.10;;;;;;5096729;28;20441;-63
2023/09/23 10:37:15;;;;;;;3.33;2.07;;;18.60;80.10;;;;;;5096900;28;20427;-62
2023/09/23 10:39:45;;;;;;;3.20;2.40;;;18.50;78.70;;;;;;5098734;28;20447;-62
2023/09/23 10:42:14;;;;;;;3.30;2.70;;;18.40;78.10;;;;;;5097457;28;20467;-61
2023/09/23 10:44:41;;;;;;;3.50;2.33;;;18.40;78.40;;;;;;5096984;28;20496;-61
2023/09/23 10:47:08;;;;;;;4.57;2.90;;;18.40;77.80;;;;;;5096142;28;20446;-61
2023/09/23 10:49:35;;;;;;;5.93;2.87;;;18.50;76.80;;;;;;5096089;28;20461;-61
2023/09/23 10:52:02;;;;;;;9.33;3.43;;;18.40;76.20;;;;;;5096743;28;20467;-60
2023/09/23 10:54:29;;;;;;;5.17;2.63;;;18.30;76.30;;;;;;5096032;28;20768;-59
2023/09/23 10:57:00;;;;;;;2.43;2.17;;;18.30;76.60;;;;;;5095997;28;20435;-61
2023/09/23 10:59:27;;;;;;;4.00;2.67;;;18.40;76.90;;;;;;5096307;28;20724;-60
2023/09/23 11:01:56;;;;;;;3.00;2.70;;;18.70;76.10;;;;;;5095564;28;20536;-60
2023/09/23 11:04:24;;;;;;;3.50;2.53;;;18.80;75.40;;;;;;5096686;28;20447;-60
2023/09/23 11:06:51;;;;;;;2.50;2.23;;;18.90;74.90;;;;;;5096106;28;20500;-60
2023/09/23 11:09:20;;;;;;;3.60;2.37;;;19.00;75.00;;;;;;5096198;28;20435;-60
2023/09/23 11:11:47;;;;;;;2.53;2.30;;;19.30;74.00;;;;;;5095687;28;20513;-61
2023/09/23 11:14:15;;;;;;;4.33;2.10;;;19.60;72.80;;;;;;5100846;28;20557;-61
2023/09/23 11:16:43;;;;;;;6.47;2.57;;;19.80;71.60;;;;;;5102116;28;20435;-61
2023/09/23 11:19:10;;;;;;;3.10;2.17;;;20.10;70.40;;;;;;5097476;28;20507;-62
2023/09/23 11:21:44;;;;;;;3.77;2.23;;;20.30;69.20;;;;;;5096893;28;20458;-61
2023/09/23 11:24:11;;;;;;;4.37;2.37;;;20.30;67.80;;;;;;5097569;28;20450;-63
2023/09/23 11:26:40;;;;;;;3.20;2.03;;;20.20;66.40;;;;;;5097567;28;20439;-60
2023/09/23 11:29:07;;;;;;;3.07;2.20;;;20.00;66.10;;;;;;5098265;28;20549;-61
2023/09/23 11:31:35;;;;;;;3.17;2.33;;;19.80;66.00;;;;;;5096248;28;20469;-61
2023/09/23 11:34:02;;;;;;;4.17;2.73;;;19.70;66.90;;;;;;5096199;28;20479;-62
2023/09/23 11:36:30;;;;;;;4.90;2.53;;;19.60;66.30;;;;;;5096228;28;20458;-61
2023/09/23 11:38:57;;;;;;;3.93;2.87;;;19.50;65.80;;;;;;5096052;28;20449;-60
2023/09/23 11:41:24;;;;;;;4.00;2.37;;;19.40;66.00;;;;;;5097149;28;20484;-62
2023/09/23 11:43:51;;;;;;;2.40;2.20;;;19.40;65.50;;;;;;5097361;28;20557;-61
2023/09/23 11:46:19;;;;;;;2.70;2.07;;;19.50;65.20;;;;;;5100440;28;20449;-62
2023/09/23 11:48:48;;;;;;;2.37;1.70;;;19.60;64.50;;;;;;5105323;28;20442;-60
2023/09/23 11:51:18;;;;;;;1.93;1.50;;;19.70;64.00;;;;;;5104227;28;20543;-61
2023/09/23 11:53:45;;;;;;;4.67;2.10;;;19.90;63.60;;;;;;5103258;28;20565;-60
2023/09/23 11:56:12;;;;;;;3.20;2.60;;;20.00;62.90;;;;;;5098941;28;20982;-62
2023/09/23 11:58:39;;;;;;;2.47;2.00;;;19.80;62.80;;;;;;5097456;28;20442;-61
2023/09/23 12:01:06;;;;;;;3.10;2.10;;;19.70;62.70;;;;;;5095775;28;20466;-61
2023/09/23 12:03:33;;;;;;;3.37;2.20;;;19.50;62.60;;;;;;5095269;28;20476;-61
2023/09/23 12:06:01;;;;;;;2.93;2.00;;;19.40;62.80;;;;;;5095338;28;20443;-59
2023/09/23 12:08:28;;;;;;;2.73;2.20;;;19.30;63.20;;;;;;5097086;28;20471;-60
2023/09/23 12:10:55;;;;;;;3.33;2.03;;;19.30;63.00;;;;;;5096650;28;20461;-61
2023/09/23 12:13:24;;;;;;;3.87;3.27;;;19.20;62.90;;;;;;5094744;28;20478;-59
2023/09/23 12:15:53;;;;;;;4.30;2.43;;;19.30;63.20;;;;;;5096312;28;20445;-59
2023/09/23 12:18:19;;;;;;;2.50;2.13;;;19.50;63.00;;;;;;5095946;28;20443;-61
2023/09/23 12:20:46;;;;;;;2.40;2.20;;;19.60;62.90;;;;;;5094600;28;20446;-61
2023/09/23 12:23:15;;;;;;;2.43;2.23;;;19.80;63.00;;;;;;5093913;28;20499;-61
2023/09/23 12:25:43;;;;;;;2.17;1.97;;;20.00;62.90;;;;;;5093508;28;20442;-63
2023/09/23 12:28:09;;;;;;;5.30;2.37;;;19.90;62.50;;;;;;5093629;28;20949;-63
2023/09/23 12:30:36;;;;;;;2.43;2.23;;;19.70;62.80;;;;;;5095020;28;20515;-63
2023/09/23 12:33:03;;;;;;;5.60;2.67;;;19.50;63.50;;;;;;5096936;28;20478;-62
2023/09/23 12:35:30;;;;;;;4.33;2.83;;;19.40;63.90;;;;;;5099098;28;20435;-61
2023/09/23 12:37:57;;;;;;;3.83;2.87;;;19.30;64.00;;;;;;5100927;28;20504;-61
2023/09/23 12:40:25;;;;;;;3.33;3.03;;;19.20;64.40;;;;;;5100404;28;20442;-63
2023/09/23 12:42:52;;;;;;;4.27;2.70;;;19.10;64.60;;;;;;5100374;28;20467;-63
2023/09/23 12:45:18;;;;;;;3.90;3.13;;;19.10;64.90;;;;;;5100779;28;20464;-61
2023/09/23 12:47:45;;;;;;;4.13;3.30;;;19.10;64.20;;;;;;5100848;28;20450;-63
2023/09/23 12:50:12;;;;;;;6.90;3.13;;;19.10;63.70;;;;;;5099501;28;20438;-62
2023/09/23 12:52:39;;;;;;;3.30;3.00;;;19.00;63.70;;;;;;5099024;28;20466;-63